sensor_id;sensor_type;location;lat;lon;timestamp;P1;durP1;ratioP1;P2;durP2;ratioP2
59109;SDS011;44895;47.438;18.978;2022-07-23T00:02:06;10.05;;;4.40;;
59109;SDS011;44895;47.438;18.978;2022-07-23T00:05:10;6.43;;;4.05;;
59109;SDS011;44895;47.438;18.978;2022-07-23T00:08:14;7.03;;;3.67;;
59109;SDS011;44895;47.438;18.978;2022-07-23T00:11:18;9.00;;;4.30;;
59109;SDS011;44895;47.438;18.978;2022-07-23T00:14:21;7.50;;;4.18;;
59109;SDS011;44895;47.438;18.978;2022-07-23T00:17:25;8.43;;;3.63;;
59109;SDS011;44895;47.438;18.978;2022-07-23T00:20:29;8.15;;;4.82;;
59109;SDS011;44895;47.438;18.978;2022-07-23T00:23:32;7.78;;;3.75;;
59109;SDS011;44895;47.438;18.978;2022-07-23T00:26:36;9.02;;;4.22;;
59109;SDS011;44895;47.438;18.978;2022-07-23T00:29:40;6.70;;;3.25;;
59109;SDS011;44895;47.438;18.978;2022-07-23T00:32:51;6.72;;;3.70;;
59109;SDS011;44895;47.438;18.978;2022-07-23T00:35:55;6.78;;;3.55;;
59109;SDS011;44895;47.438;18.978;2022-07-23T00:38:59;7.70;;;4.13;;
59109;SDS011;44895;47.438;18.978;2022-07-23T00:42:03;7.68;;;3.90;;
59109;SDS011;44895;47.438;18.978;2022-07-23T00:45:07;11.50;;;3.95;;
59109;SDS011;44895;47.438;18.978;2022-07-23T00:48:11;7.32;;;4.07;;
59109;SDS011;44895;47.438;18.978;2022-07-23T00:51:16;7.85;;;4.13;;
59109;SDS011;44895;47.438;18.978;2022-07-23T00:54:21;10.10;;;4.53;;
59109;SDS011;44895;47.438;18.978;2022-07-23T00:57:26;13.27;;;4.32;;
59109;SDS011;44895;47.438;18.978;2022-07-23T01:00:31;7.88;;;4.18;;
59109;SDS011;44895;47.438;18.978;2022-07-23T01:03:35;7.15;;;3.72;;
59109;SDS011;44895;47.438;18.978;2022-07-23T01:06:39;7.13;;;4.00;;
59109;SDS011;44895;47.438;18.978;2022-07-23T01:09:43;15.05;;;5.65;;
59109;SDS011;44895;47.438;18.978;2022-07-23T01:12:48;9.07;;;3.80;;
59109;SDS011;44895;47.438;18.978;2022-07-23T01:15:52;9.82;;;4.40;;
59109;SDS011;44895;47.438;18.978;2022-07-23T01:18:56;8.00;;;4.25;;
59109;SDS011;44895;47.438;18.978;2022-07-23T01:22:01;9.50;;;4.15;;
59109;SDS011;44895;47.438;18.978;2022-07-23T01:25:07;8.27;;;4.07;;
59109;SDS011;44895;47.438;18.978;2022-07-23T01:28:12;7.32;;;4.03;;
59109;SDS011;44895;47.438;18.978;2022-07-23T01:31:18;7.63;;;3.95;;
59109;SDS011;44895;47.438;18.978;2022-07-23T01:34:23;7.63;;;4.22;;
59109;SDS011;44895;47.438;18.978;2022-07-23T01:37:26;8.40;;;4.28;;
59109;SDS011;44895;47.438;18.978;2022-07-23T01:40:31;9.35;;;3.88;;
59109;SDS011;44895;47.438;18.978;2022-07-23T01:43:34;9.60;;;4.95;;
59109;SDS011;44895;47.438;18.978;2022-07-23T01:46:38;6.85;;;3.63;;
59109;SDS011;44895;47.438;18.978;2022-07-23T01:49:42;9.98;;;3.88;;
59109;SDS011;44895;47.438;18.978;2022-07-23T01:53:05;9.80;;;4.50;;
59109;SDS011;44895;47.438;18.978;2022-07-23T01:56:09;8.05;;;4.75;;
59109;SDS011;44895;47.438;18.978;2022-07-23T01:59:12;8.32;;;4.45;;
59109;SDS011;44895;47.438;18.978;2022-07-23T02:02:16;9.38;;;4.90;;
59109;SDS011;44895;47.438;18.978;2022-07-23T02:05:20;12.95;;;7.22;;
59109;SDS011;44895;47.438;18.978;2022-07-23T02:08:23;8.95;;;5.68;;
59109;SDS011;44895;47.438;18.978;2022-07-23T02:11:27;13.73;;;5.32;;
59109;SDS011;44895;47.438;18.978;2022-07-23T02:14:31;8.55;;;4.90;;
59109;SDS011;44895;47.438;18.978;2022-07-23T02:17:34;9.43;;;5.20;;
59109;SDS011;44895;47.438;18.978;2022-07-23T02:20:38;8.40;;;5.00;;
59109;SDS011;44895;47.438;18.978;2022-07-23T02:23:45;7.43;;;4.07;;
59109;SDS011;44895;47.438;18.978;2022-07-23T02:26:50;8.23;;;4.28;;
59109;SDS011;44895;47.438;18.978;2022-07-23T02:29:54;8.50;;;5.53;;
59109;SDS011;44895;47.438;18.978;2022-07-23T02:32:58;8.88;;;5.45;;
59109;SDS011;44895;47.438;18.978;2022-07-23T02:36:02;8.32;;;4.70;;
59109;SDS011;44895;47.438;18.978;2022-07-23T02:39:06;8.80;;;4.85;;
59109;SDS011;44895;47.438;18.978;2022-07-23T02:42:11;8.23;;;4.57;;
59109;SDS011;44895;47.438;18.978;2022-07-23T02:45:15;8.68;;;4.63;;
59109;SDS011;44895;47.438;18.978;2022-07-23T02:48:20;9.27;;;4.85;;
59109;SDS011;44895;47.438;18.978;2022-07-23T02:51:25;12.93;;;5.85;;
59109;SDS011;44895;47.438;18.978;2022-07-23T02:54:34;7.43;;;4.10;;
59109;SDS011;44895;47.438;18.978;2022-07-23T02:57:38;10.45;;;4.72;;
59109;SDS011;44895;47.438;18.978;2022-07-23T03:00:41;9.15;;;5.05;;
59109;SDS011;44895;47.438;18.978;2022-07-23T03:03:45;8.65;;;5.20;;
59109;SDS011;44895;47.438;18.978;2022-07-23T03:06:49;7.82;;;5.47;;
59109;SDS011;44895;47.438;18.978;2022-07-23T03:09:53;9.65;;;4.55;;
59109;SDS011;44895;47.438;18.978;2022-07-23T03:12:56;8.60;;;4.80;;
59109;SDS011;44895;47.438;18.978;2022-07-23T03:16:00;8.45;;;5.03;;
59109;SDS011;44895;47.438;18.978;2022-07-23T03:19:04;8.68;;;6.28;;
59109;SDS011;44895;47.438;18.978;2022-07-23T03:22:08;8.05;;;4.88;;
59109;SDS011;44895;47.438;18.978;2022-07-23T03:25:11;9.13;;;5.00;;
59109;SDS011;44895;47.438;18.978;2022-07-23T03:28:15;8.00;;;5.00;;
59109;SDS011;44895;47.438;18.978;2022-07-23T03:31:23;9.30;;;5.47;;
59109;SDS011;44895;47.438;18.978;2022-07-23T03:34:27;10.85;;;5.68;;
59109;SDS011;44895;47.438;18.978;2022-07-23T03:37:30;9.27;;;5.65;;
59109;SDS011;44895;47.438;18.978;2022-07-23T03:40:35;9.68;;;5.13;;
59109;SDS011;44895;47.438;18.978;2022-07-23T03:43:40;8.57;;;4.35;;
59109;SDS011;44895;47.438;18.978;2022-07-23T03:46:44;10.77;;;5.00;;
59109;SDS011;44895;47.438;18.978;2022-07-23T03:49:48;8.30;;;5.22;;
59109;SDS011;44895;47.438;18.978;2022-07-23T03:52:52;9.93;;;5.90;;
59109;SDS011;44895;47.438;18.978;2022-07-23T03:55:57;8.73;;;5.07;;
59109;SDS011;44895;47.438;18.978;2022-07-23T03:59:01;11.40;;;6.25;;
59109;SDS011;44895;47.438;18.978;2022-07-23T04:02:05;8.35;;;5.28;;
59109;SDS011;44895;47.438;18.978;2022-07-23T04:05:09;9.82;;;5.43;;
59109;SDS011;44895;47.438;18.978;2022-07-23T04:08:15;13.65;;;6.20;;
59109;SDS011;44895;47.438;18.978;2022-07-23T04:11:22;9.25;;;5.25;;
59109;SDS011;44895;47.438;18.978;2022-07-23T04:14:26;8.15;;;5.38;;
59109;SDS011;44895;47.438;18.978;2022-07-23T04:17:31;9.95;;;4.88;;
59109;SDS011;44895;47.438;18.978;2022-07-23T04:20:35;8.18;;;4.40;;
59109;SDS011;44895;47.438;18.978;2022-07-23T04:23:40;9.70;;;5.57;;
59109;SDS011;44895;47.438;18.978;2022-07-23T04:26:45;9.82;;;5.07;;
59109;SDS011;44895;47.438;18.978;2022-07-23T04:29:48;8.18;;;4.63;;
59109;SDS011;44895;47.438;18.978;2022-07-23T04:32:52;8.73;;;5.53;;
59109;SDS011;44895;47.438;18.978;2022-07-23T04:36:00;10.13;;;6.55;;
59109;SDS011;44895;47.438;18.978;2022-07-23T04:39:05;11.32;;;5.57;;
59109;SDS011;44895;47.438;18.978;2022-07-23T04:42:09;9.95;;;5.47;;
59109;SDS011;44895;47.438;18.978;2022-07-23T04:45:14;9.18;;;5.22;;
59109;SDS011;44895;47.438;18.978;2022-07-23T04:48:18;9.10;;;5.43;;
59109;SDS011;44895;47.438;18.978;2022-07-23T04:51:24;13.98;;;5.57;;
59109;SDS011;44895;47.438;18.978;2022-07-23T04:54:28;14.05;;;5.80;;
59109;SDS011;44895;47.438;18.978;2022-07-23T04:57:32;8.35;;;5.50;;
59109;SDS011;44895;47.438;18.978;2022-07-23T05:00:36;8.55;;;5.05;;
59109;SDS011;44895;47.438;18.978;2022-07-23T05:03:40;10.57;;;6.22;;
59109;SDS011;44895;47.438;18.978;2022-07-23T05:06:44;10.02;;;5.20;;
59109;SDS011;44895;47.438;18.978;2022-07-23T05:09:48;9.00;;;4.53;;
59109;SDS011;44895;47.438;18.978;2022-07-23T05:12:53;10.25;;;4.82;;
59109;SDS011;44895;47.438;18.978;2022-07-23T05:15:57;8.30;;;4.30;;
59109;SDS011;44895;47.438;18.978;2022-07-23T05:19:02;8.02;;;4.50;;
59109;SDS011;44895;47.438;18.978;2022-07-23T05:22:09;8.48;;;4.93;;
59109;SDS011;44895;47.438;18.978;2022-07-23T05:25:13;8.00;;;4.82;;
59109;SDS011;44895;47.438;18.978;2022-07-23T05:28:17;10.75;;;5.05;;
59109;SDS011;44895;47.438;18.978;2022-07-23T05:31:21;9.20;;;5.07;;
59109;SDS011;44895;47.438;18.978;2022-07-23T05:34:26;7.50;;;4.55;;
59109;SDS011;44895;47.438;18.978;2022-07-23T05:37:29;10.32;;;4.97;;
59109;SDS011;44895;47.438;18.978;2022-07-23T05:40:34;7.45;;;4.18;;
59109;SDS011;44895;47.438;18.978;2022-07-23T05:58:10;8.82;;;3.80;;
59109;SDS011;44895;47.438;18.978;2022-07-23T06:01:14;5.93;;;3.80;;
59109;SDS011;44895;47.438;18.978;2022-07-23T06:04:34;9.00;;;3.78;;
59109;SDS011;44895;47.438;18.978;2022-07-23T06:08:01;7.18;;;4.03;;
59109;SDS011;44895;47.438;18.978;2022-07-23T06:11:06;8.95;;;4.82;;
59109;SDS011;44895;47.438;18.978;2022-07-23T06:14:10;12.07;;;4.63;;
59109;SDS011;44895;47.438;18.978;2022-07-23T06:17:26;8.63;;;3.63;;
59109;SDS011;44895;47.438;18.978;2022-07-23T06:20:30;7.72;;;4.05;;
59109;SDS011;44895;47.438;18.978;2022-07-23T06:23:35;8.23;;;4.38;;
59109;SDS011;44895;47.438;18.978;2022-07-23T06:29:57;7.75;;;4.10;;
59109;SDS011;44895;47.438;18.978;2022-07-23T06:33:01;8.48;;;4.18;;
59109;SDS011;44895;47.438;18.978;2022-07-23T06:36:06;6.95;;;4.10;;
59109;SDS011;44895;47.438;18.978;2022-07-23T06:39:10;7.38;;;4.07;;
59109;SDS011;44895;47.438;18.978;2022-07-23T06:42:13;6.57;;;3.65;;
59109;SDS011;44895;47.438;18.978;2022-07-23T06:45:21;6.65;;;3.97;;
59109;SDS011;44895;47.438;18.978;2022-07-23T06:48:25;8.00;;;4.05;;
59109;SDS011;44895;47.438;18.978;2022-07-23T06:51:30;6.38;;;3.88;;
59109;SDS011;44895;47.438;18.978;2022-07-23T06:54:34;9.85;;;3.72;;
59109;SDS011;44895;47.438;18.978;2022-07-23T06:57:38;9.40;;;3.92;;
59109;SDS011;44895;47.438;18.978;2022-07-23T07:00:43;9.98;;;4.10;;
59109;SDS011;44895;47.438;18.978;2022-07-23T07:03:46;9.07;;;4.45;;
59109;SDS011;44895;47.438;18.978;2022-07-23T07:06:50;6.10;;;3.45;;
59109;SDS011;44895;47.438;18.978;2022-07-23T07:09:54;9.23;;;3.50;;
59109;SDS011;44895;47.438;18.978;2022-07-23T07:12:58;8.65;;;4.50;;
59109;SDS011;44895;47.438;18.978;2022-07-23T07:16:02;7.82;;;3.83;;
59109;SDS011;44895;47.438;18.978;2022-07-23T07:19:06;6.78;;;3.63;;
59109;SDS011;44895;47.438;18.978;2022-07-23T07:22:09;8.30;;;4.30;;
59109;SDS011;44895;47.438;18.978;2022-07-23T07:25:13;7.05;;;3.50;;
59109;SDS011;44895;47.438;18.978;2022-07-23T07:28:17;9.20;;;4.30;;
59109;SDS011;44895;47.438;18.978;2022-07-23T07:31:21;7.95;;;4.50;;
59109;SDS011;44895;47.438;18.978;2022-07-23T07:34:25;6.65;;;3.60;;
59109;SDS011;44895;47.438;18.978;2022-07-23T07:37:30;8.57;;;3.72;;
59109;SDS011;44895;47.438;18.978;2022-07-23T07:40:33;6.90;;;3.60;;
59109;SDS011;44895;47.438;18.978;2022-07-23T07:43:37;11.10;;;4.30;;
59109;SDS011;44895;47.438;18.978;2022-07-23T07:46:42;12.93;;;4.30;;
59109;SDS011;44895;47.438;18.978;2022-07-23T07:49:45;9.18;;;4.47;;
59109;SDS011;44895;47.438;18.978;2022-07-23T07:52:49;6.78;;;4.07;;
59109;SDS011;44895;47.438;18.978;2022-07-23T07:55:53;5.05;;;3.08;;
59109;SDS011;44895;47.438;18.978;2022-07-23T07:58:57;8.10;;;4.40;;
59109;SDS011;44895;47.438;18.978;2022-07-23T08:02:01;7.88;;;4.03;;
59109;SDS011;44895;47.438;18.978;2022-07-23T08:05:05;9.07;;;3.78;;
59109;SDS011;44895;47.438;18.978;2022-07-23T08:08:09;6.60;;;3.17;;
59109;SDS011;44895;47.438;18.978;2022-07-23T08:11:17;6.57;;;3.53;;
59109;SDS011;44895;47.438;18.978;2022-07-23T08:14:21;5.88;;;3.55;;
59109;SDS011;44895;47.438;18.978;2022-07-23T08:17:25;5.93;;;3.80;;
59109;SDS011;44895;47.438;18.978;2022-07-23T08:20:29;5.90;;;2.95;;
59109;SDS011;44895;47.438;18.978;2022-07-23T08:23:32;6.95;;;3.30;;
59109;SDS011;44895;47.438;18.978;2022-07-23T08:26:36;8.93;;;3.95;;
59109;SDS011;44895;47.438;18.978;2022-07-23T08:29:40;5.57;;;2.90;;
59109;SDS011;44895;47.438;18.978;2022-07-23T08:33:03;6.65;;;2.90;;
59109;SDS011;44895;47.438;18.978;2022-07-23T08:36:10;5.45;;;3.20;;
59109;SDS011;44895;47.438;18.978;2022-07-23T08:39:14;7.75;;;3.88;;
59109;SDS011;44895;47.438;18.978;2022-07-23T08:42:18;5.82;;;3.40;;
59109;SDS011;44895;47.438;18.978;2022-07-23T08:45:24;5.82;;;3.17;;
59109;SDS011;44895;47.438;18.978;2022-07-23T08:48:29;15.35;;;4.00;;
59109;SDS011;44895;47.438;18.978;2022-07-23T08:51:35;7.05;;;4.18;;
59109;SDS011;44895;47.438;18.978;2022-07-23T08:54:38;6.32;;;3.08;;
59109;SDS011;44895;47.438;18.978;2022-07-23T08:57:42;8.85;;;3.78;;
59109;SDS011;44895;47.438;18.978;2022-07-23T09:00:46;5.60;;;2.97;;
59109;SDS011;44895;47.438;18.978;2022-07-23T09:03:50;7.57;;;3.47;;
59109;SDS011;44895;47.438;18.978;2022-07-23T09:06:54;6.32;;;3.72;;
59109;SDS011;44895;47.438;18.978;2022-07-23T09:10:09;8.45;;;3.38;;
59109;SDS011;44895;47.438;18.978;2022-07-23T09:16:30;9.63;;;3.97;;
59109;SDS011;44895;47.438;18.978;2022-07-23T09:19:34;6.95;;;3.13;;
59109;SDS011;44895;47.438;18.978;2022-07-23T09:22:40;5.70;;;3.35;;
59109;SDS011;44895;47.438;18.978;2022-07-23T09:25:48;5.95;;;3.42;;
59109;SDS011;44895;47.438;18.978;2022-07-23T09:28:53;7.47;;;4.15;;
59109;SDS011;44895;47.438;18.978;2022-07-23T09:32:00;7.95;;;3.80;;
59109;SDS011;44895;47.438;18.978;2022-07-23T09:38:28;8.23;;;4.45;;
59109;SDS011;44895;47.438;18.978;2022-07-23T09:41:36;7.03;;;3.60;;
59109;SDS011;44895;47.438;18.978;2022-07-23T09:44:42;11.43;;;5.00;;
59109;SDS011;44895;47.438;18.978;2022-07-23T09:50:51;9.07;;;4.38;;
59109;SDS011;44895;47.438;18.978;2022-07-23T09:53:56;11.27;;;4.30;;
59109;SDS011;44895;47.438;18.978;2022-07-23T09:57:06;7.72;;;4.50;;
59109;SDS011;44895;47.438;18.978;2022-07-23T10:00:14;6.72;;;3.70;;
59109;SDS011;44895;47.438;18.978;2022-07-23T10:03:17;8.95;;;3.92;;
59109;SDS011;44895;47.438;18.978;2022-07-23T10:07:01;6.75;;;3.85;;
59109;SDS011;44895;47.438;18.978;2022-07-23T10:10:46;10.23;;;3.70;;
59109;SDS011;44895;47.438;18.978;2022-07-23T10:14:05;7.20;;;4.00;;
59109;SDS011;44895;47.438;18.978;2022-07-23T10:17:30;9.90;;;4.60;;
59109;SDS011;44895;47.438;18.978;2022-07-23T10:20:33;8.05;;;4.10;;
59109;SDS011;44895;47.438;18.978;2022-07-23T10:23:42;8.80;;;4.20;;
59109;SDS011;44895;47.438;18.978;2022-07-23T10:27:00;7.60;;;4.03;;
59109;SDS011;44895;47.438;18.978;2022-07-23T10:33:38;7.90;;;4.15;;
59109;SDS011;44895;47.438;18.978;2022-07-23T10:40:28;6.22;;;3.40;;
59109;SDS011;44895;47.438;18.978;2022-07-23T10:50:22;6.53;;;3.85;;
59109;SDS011;44895;47.438;18.978;2022-07-23T11:03:06;7.43;;;3.22;;
59109;SDS011;44895;47.438;18.978;2022-07-23T11:07:06;7.68;;;3.60;;
59109;SDS011;44895;47.438;18.978;2022-07-23T11:10:04;7.13;;;3.85;;
59109;SDS011;44895;47.438;18.978;2022-07-23T11:16:25;6.20;;;3.60;;
59109;SDS011;44895;47.438;18.978;2022-07-23T11:19:29;6.65;;;3.40;;
59109;SDS011;44895;47.438;18.978;2022-07-23T11:25:43;7.18;;;4.03;;
59109;SDS011;44895;47.438;18.978;2022-07-23T11:28:48;7.80;;;4.28;;
59109;SDS011;44895;47.438;18.978;2022-07-23T11:31:53;7.45;;;4.15;;
59109;SDS011;44895;47.438;18.978;2022-07-23T11:34:59;9.68;;;5.25;;
59109;SDS011;44895;47.438;18.978;2022-07-23T11:38:04;7.13;;;4.47;;
59109;SDS011;44895;47.438;18.978;2022-07-23T11:41:09;9.20;;;4.47;;
59109;SDS011;44895;47.438;18.978;2022-07-23T11:47:38;7.47;;;3.97;;
59109;SDS011;44895;47.438;18.978;2022-07-23T11:50:42;9.25;;;4.90;;
59109;SDS011;44895;47.438;18.978;2022-07-23T11:53:45;6.72;;;4.40;;
59109;SDS011;44895;47.438;18.978;2022-07-23T11:56:56;8.45;;;4.57;;
59109;SDS011;44895;47.438;18.978;2022-07-23T12:00:11;8.30;;;5.18;;
59109;SDS011;44895;47.438;18.978;2022-07-23T12:06:20;7.00;;;4.53;;
59109;SDS011;44895;47.438;18.978;2022-07-23T12:09:23;6.60;;;3.92;;
59109;SDS011;44895;47.438;18.978;2022-07-23T12:12:27;7.38;;;4.20;;
59109;SDS011;44895;47.438;18.978;2022-07-23T12:15:40;7.57;;;4.07;;
59109;SDS011;44895;47.438;18.978;2022-07-23T12:18:45;7.13;;;4.47;;
59109;SDS011;44895;47.438;18.978;2022-07-23T12:21:49;7.90;;;4.57;;
59109;SDS011;44895;47.438;18.978;2022-07-23T12:24:54;7.28;;;4.05;;
59109;SDS011;44895;47.438;18.978;2022-07-23T12:31:12;8.43;;;4.72;;
59109;SDS011;44895;47.438;18.978;2022-07-23T12:34:15;10.32;;;5.57;;
59109;SDS011;44895;47.438;18.978;2022-07-23T12:43:58;7.97;;;5.15;;
59109;SDS011;44895;47.438;18.978;2022-07-23T12:47:04;9.15;;;4.15;;
59109;SDS011;44895;47.438;18.978;2022-07-23T12:50:07;6.38;;;4.47;;
59109;SDS011;44895;47.438;18.978;2022-07-23T12:53:16;9.07;;;4.60;;
59109;SDS011;44895;47.438;18.978;2022-07-23T12:56:46;10.10;;;5.20;;
59109;SDS011;44895;47.438;18.978;2022-07-23T12:59:50;8.38;;;4.18;;
59109;SDS011;44895;47.438;18.978;2022-07-23T13:02:53;8.20;;;4.43;;
59109;SDS011;44895;47.438;18.978;2022-07-23T13:05:58;7.65;;;4.47;;
59109;SDS011;44895;47.438;18.978;2022-07-23T13:09:04;6.30;;;4.10;;
59109;SDS011;44895;47.438;18.978;2022-07-23T13:12:09;6.35;;;4.10;;
59109;SDS011;44895;47.438;18.978;2022-07-23T13:15:13;8.95;;;3.90;;
59109;SDS011;44895;47.438;18.978;2022-07-23T13:18:17;8.38;;;5.15;;
59109;SDS011;44895;47.438;18.978;2022-07-23T13:21:22;6.38;;;4.32;;
59109;SDS011;44895;47.438;18.978;2022-07-23T13:24:26;6.75;;;3.72;;
59109;SDS011;44895;47.438;18.978;2022-07-23T13:27:29;12.55;;;5.28;;
59109;SDS011;44895;47.438;18.978;2022-07-23T13:30:33;7.05;;;4.30;;
59109;SDS011;44895;47.438;18.978;2022-07-23T13:33:37;7.20;;;4.03;;
59109;SDS011;44895;47.438;18.978;2022-07-23T13:36:41;7.65;;;4.35;;
59109;SDS011;44895;47.438;18.978;2022-07-23T13:39:46;11.23;;;5.05;;
59109;SDS011;44895;47.438;18.978;2022-07-23T13:42:50;7.22;;;4.43;;
59109;SDS011;44895;47.438;18.978;2022-07-23T13:45:54;8.30;;;4.90;;
59109;SDS011;44895;47.438;18.978;2022-07-23T13:48:58;7.13;;;4.45;;
59109;SDS011;44895;47.438;18.978;2022-07-23T13:52:05;9.65;;;6.03;;
59109;SDS011;44895;47.438;18.978;2022-07-23T13:55:09;8.15;;;4.57;;
59109;SDS011;44895;47.438;18.978;2022-07-23T13:58:13;8.30;;;5.75;;
59109;SDS011;44895;47.438;18.978;2022-07-23T14:01:17;8.45;;;4.47;;
59109;SDS011;44895;47.438;18.978;2022-07-23T14:04:21;9.13;;;4.85;;
59109;SDS011;44895;47.438;18.978;2022-07-23T14:07:26;8.82;;;5.80;;
59109;SDS011;44895;47.438;18.978;2022-07-23T14:10:29;7.63;;;5.20;;
59109;SDS011;44895;47.438;18.978;2022-07-23T14:13:34;7.57;;;4.55;;
59109;SDS011;44895;47.438;18.978;2022-07-23T14:16:38;7.90;;;4.88;;
59109;SDS011;44895;47.438;18.978;2022-07-23T14:19:41;9.55;;;3.90;;
59109;SDS011;44895;47.438;18.978;2022-07-23T14:22:45;9.32;;;4.43;;
59109;SDS011;44895;47.438;18.978;2022-07-23T14:25:49;8.05;;;4.53;;
59109;SDS011;44895;47.438;18.978;2022-07-23T14:28:52;8.40;;;4.53;;
59109;SDS011;44895;47.438;18.978;2022-07-23T14:31:57;8.70;;;4.85;;
59109;SDS011;44895;47.438;18.978;2022-07-23T14:35:02;8.40;;;4.57;;
59109;SDS011;44895;47.438;18.978;2022-07-23T14:38:07;6.77;;;3.80;;
59109;SDS011;44895;47.438;18.978;2022-07-23T14:41:11;7.45;;;4.28;;
59109;SDS011;44895;47.438;18.978;2022-07-23T14:44:14;7.20;;;4.40;;
59109;SDS011;44895;47.438;18.978;2022-07-23T14:47:18;7.18;;;4.57;;
59109;SDS011;44895;47.438;18.978;2022-07-23T14:50:22;8.07;;;4.30;;
59109;SDS011;44895;47.438;18.978;2022-07-23T14:53:26;6.35;;;4.00;;
59109;SDS011;44895;47.438;18.978;2022-07-23T14:56:30;7.90;;;5.45;;
59109;SDS011;44895;47.438;18.978;2022-07-23T14:59:34;8.30;;;4.70;;
59109;SDS011;44895;47.438;18.978;2022-07-23T15:02:38;8.65;;;5.68;;
59109;SDS011;44895;47.438;18.978;2022-07-23T15:05:42;8.73;;;6.57;;
59109;SDS011;44895;47.438;18.978;2022-07-23T15:08:46;9.45;;;6.80;;
59109;SDS011;44895;47.438;18.978;2022-07-23T15:11:50;8.95;;;7.32;;
59109;SDS011;44895;47.438;18.978;2022-07-23T15:14:53;9.50;;;7.57;;
59109;SDS011;44895;47.438;18.978;2022-07-23T15:17:57;11.77;;;10.30;;
59109;SDS011;44895;47.438;18.978;2022-07-23T15:21:02;12.77;;;10.32;;
59109;SDS011;44895;47.438;18.978;2022-07-23T15:24:06;10.98;;;9.82;;
59109;SDS011;44895;47.438;18.978;2022-07-23T15:27:09;13.48;;;10.13;;
59109;SDS011;44895;47.438;18.978;2022-07-23T15:30:13;12.52;;;9.20;;
59109;SDS011;44895;47.438;18.978;2022-07-23T15:33:17;13.52;;;8.23;;
59109;SDS011;44895;47.438;18.978;2022-07-23T15:36:21;9.90;;;6.38;;
59109;SDS011;44895;47.438;18.978;2022-07-23T15:39:24;14.20;;;9.25;;
59109;SDS011;44895;47.438;18.978;2022-07-23T15:42:28;10.30;;;7.00;;
59109;SDS011;44895;47.438;18.978;2022-07-23T15:45:32;17.45;;;6.80;;
59109;SDS011;44895;47.438;18.978;2022-07-23T15:48:36;14.48;;;7.13;;
59109;SDS011;44895;47.438;18.978;2022-07-23T15:51:40;10.35;;;6.60;;
59109;SDS011;44895;47.438;18.978;2022-07-23T15:54:44;11.20;;;7.00;;
59109;SDS011;44895;47.438;18.978;2022-07-23T15:57:49;25.33;;;7.53;;
59109;SDS011;44895;47.438;18.978;2022-07-23T16:00:53;12.45;;;7.22;;
59109;SDS011;44895;47.438;18.978;2022-07-23T16:03:56;10.05;;;6.72;;
59109;SDS011;44895;47.438;18.978;2022-07-23T16:10:07;9.20;;;6.22;;
59109;SDS011;44895;47.438;18.978;2022-07-23T16:13:11;10.80;;;7.25;;
59109;SDS011;44895;47.438;18.978;2022-07-23T16:16:15;16.65;;;8.07;;
59109;SDS011;44895;47.438;18.978;2022-07-23T16:19:18;9.20;;;7.10;;
59109;SDS011;44895;47.438;18.978;2022-07-23T16:22:22;10.77;;;7.93;;
59109;SDS011;44895;47.438;18.978;2022-07-23T16:25:26;9.32;;;7.28;;
59109;SDS011;44895;47.438;18.978;2022-07-23T16:28:29;10.30;;;7.35;;
59109;SDS011;44895;47.438;18.978;2022-07-23T16:31:33;12.02;;;7.78;;
59109;SDS011;44895;47.438;18.978;2022-07-23T16:34:36;21.08;;;10.15;;
59109;SDS011;44895;47.438;18.978;2022-07-23T16:37:41;9.25;;;7.40;;
59109;SDS011;44895;47.438;18.978;2022-07-23T16:40:45;10.05;;;7.82;;
59109;SDS011;44895;47.438;18.978;2022-07-23T16:43:48;9.30;;;6.13;;
59109;SDS011;44895;47.438;18.978;2022-07-23T16:46:52;9.38;;;6.80;;
59109;SDS011;44895;47.438;18.978;2022-07-23T16:49:55;11.48;;;7.43;;
59109;SDS011;44895;47.438;18.978;2022-07-23T16:52:59;15.80;;;7.30;;
59109;SDS011;44895;47.438;18.978;2022-07-23T16:56:03;8.57;;;5.25;;
59109;SDS011;44895;47.438;18.978;2022-07-23T16:59:07;11.98;;;6.90;;
59109;SDS011;44895;47.438;18.978;2022-07-23T17:02:36;10.18;;;6.53;;
59109;SDS011;44895;47.438;18.978;2022-07-23T17:05:41;7.88;;;5.35;;
59109;SDS011;44895;47.438;18.978;2022-07-23T17:08:46;9.50;;;6.68;;
59109;SDS011;44895;47.438;18.978;2022-07-23T17:11:49;10.20;;;6.38;;
59109;SDS011;44895;47.438;18.978;2022-07-23T17:14:53;8.63;;;6.57;;
59109;SDS011;44895;47.438;18.978;2022-07-23T17:17:57;10.20;;;6.85;;
59109;SDS011;44895;47.438;18.978;2022-07-23T17:21:01;9.07;;;6.82;;
59109;SDS011;44895;47.438;18.978;2022-07-23T17:24:06;9.05;;;6.65;;
59109;SDS011;44895;47.438;18.978;2022-07-23T17:27:10;10.48;;;7.03;;
59109;SDS011;44895;47.438;18.978;2022-07-23T17:30:14;11.00;;;7.93;;
59109;SDS011;44895;47.438;18.978;2022-07-23T17:33:18;13.30;;;7.05;;
59109;SDS011;44895;47.438;18.978;2022-07-23T17:36:22;11.07;;;7.75;;
59109;SDS011;44895;47.438;18.978;2022-07-23T17:39:26;11.25;;;7.10;;
59109;SDS011;44895;47.438;18.978;2022-07-23T17:42:31;9.63;;;6.82;;
59109;SDS011;44895;47.438;18.978;2022-07-23T17:45:36;10.27;;;7.57;;
59109;SDS011;44895;47.438;18.978;2022-07-23T17:48:39;10.18;;;7.72;;
59109;SDS011;44895;47.438;18.978;2022-07-23T17:51:44;9.00;;;6.97;;
59109;SDS011;44895;47.438;18.978;2022-07-23T17:54:48;9.90;;;6.97;;
59109;SDS011;44895;47.438;18.978;2022-07-23T17:57:52;12.88;;;7.35;;
59109;SDS011;44895;47.438;18.978;2022-07-23T18:00:57;10.85;;;8.43;;
59109;SDS011;44895;47.438;18.978;2022-07-23T18:04:01;10.32;;;6.88;;
59109;SDS011;44895;47.438;18.978;2022-07-23T18:07:05;11.38;;;6.93;;
59109;SDS011;44895;47.438;18.978;2022-07-23T18:10:09;9.77;;;6.95;;
59109;SDS011;44895;47.438;18.978;2022-07-23T18:13:13;10.68;;;7.28;;
59109;SDS011;44895;47.438;18.978;2022-07-23T18:16:16;10.52;;;7.05;;
59109;SDS011;44895;47.438;18.978;2022-07-23T18:19:21;9.35;;;6.32;;
59109;SDS011;44895;47.438;18.978;2022-07-23T18:22:24;8.10;;;5.53;;
59109;SDS011;44895;47.438;18.978;2022-07-23T18:25:28;6.93;;;4.13;;
59109;SDS011;44895;47.438;18.978;2022-07-23T18:28:32;7.28;;;4.20;;
59109;SDS011;44895;47.438;18.978;2022-07-23T18:31:37;8.23;;;4.88;;
59109;SDS011;44895;47.438;18.978;2022-07-23T18:34:41;6.72;;;4.28;;
59109;SDS011;44895;47.438;18.978;2022-07-23T18:37:46;8.20;;;4.97;;
59109;SDS011;44895;47.438;18.978;2022-07-23T18:40:50;7.78;;;5.20;;
59109;SDS011;44895;47.438;18.978;2022-07-23T18:43:54;8.45;;;5.10;;
59109;SDS011;44895;47.438;18.978;2022-07-23T18:46:58;10.00;;;5.40;;
59109;SDS011;44895;47.438;18.978;2022-07-23T18:50:02;10.30;;;5.68;;
59109;SDS011;44895;47.438;18.978;2022-07-23T18:53:10;8.20;;;5.05;;
59109;SDS011;44895;47.438;18.978;2022-07-23T18:56:15;9.18;;;5.43;;
59109;SDS011;44895;47.438;18.978;2022-07-23T18:59:18;9.95;;;6.53;;
59109;SDS011;44895;47.438;18.978;2022-07-23T19:02:22;8.98;;;6.35;;
59109;SDS011;44895;47.438;18.978;2022-07-23T19:05:26;8.73;;;5.38;;
59109;SDS011;44895;47.438;18.978;2022-07-23T19:08:30;12.57;;;5.95;;
59109;SDS011;44895;47.438;18.978;2022-07-23T19:11:34;9.40;;;6.10;;
59109;SDS011;44895;47.438;18.978;2022-07-23T19:14:38;9.15;;;5.82;;
59109;SDS011;44895;47.438;18.978;2022-07-23T19:17:42;10.10;;;6.45;;
59109;SDS011;44895;47.438;18.978;2022-07-23T19:20:46;10.75;;;6.78;;
59109;SDS011;44895;47.438;18.978;2022-07-23T19:23:49;10.25;;;7.28;;
59109;SDS011;44895;47.438;18.978;2022-07-23T19:26:53;11.00;;;7.47;;
59109;SDS011;44895;47.438;18.978;2022-07-23T19:29:57;11.40;;;6.95;;
59109;SDS011;44895;47.438;18.978;2022-07-23T19:33:01;10.02;;;6.60;;